sensor_id;sensor_type;location;lat;lon;timestamp;P1;durP1;ratioP1;P2;durP2;ratioP2
10410;SDS011;5251;52.112;8.606;2023-05-10T00:02:23;4.45;;;4.05;;
10410;SDS011;5251;52.112;8.606;2023-05-10T00:04:49;4.80;;;4.18;;
10410;SDS011;5251;52.112;8.606;2023-05-10T00:07:15;4.07;;;3.78;;
10410;SDS011;5251;52.112;8.606;2023-05-10T00:09:42;4.40;;;4.00;;
10410;SDS011;5251;52.112;8.606;2023-05-10T00:12:08;4.50;;;4.10;;
10410;SDS011;5251;52.112;8.606;2023-05-10T00:14:34;4.40;;;4.00;;
10410;SDS011;5251;52.112;8.606;2023-05-10T00:16:59;4.80;;;4.40;;
10410;SDS011;5251;52.112;8.606;2023-05-10T00:19:25;4.88;;;4.47;;
10410;SDS011;5251;52.112;8.606;2023-05-10T00:21:50;4.38;;;3.97;;
10410;SDS011;5251;52.112;8.606;2023-05-10T00:24:16;5.25;;;4.75;;
10410;SDS011;5251;52.112;8.606;2023-05-10T00:26:42;5.57;;;5.07;;
10410;SDS011;5251;52.112;8.606;2023-05-10T00:29:07;5.32;;;4.65;;
10410;SDS011;5251;52.112;8.606;2023-05-10T00:31:33;5.55;;;5.05;;
10410;SDS011;5251;52.112;8.606;2023-05-10T00:33:58;5.82;;;5.32;;
10410;SDS011;5251;52.112;8.606;2023-05-10T00:36:24;5.20;;;4.70;;
10410;SDS011;5251;52.112;8.606;2023-05-10T00:38:49;5.68;;;5.18;;
10410;SDS011;5251;52.112;8.606;2023-05-10T00:41:15;5.78;;;4.90;;
10410;SDS011;5251;52.112;8.606;2023-05-10T00:43:41;5.55;;;5.05;;
10410;SDS011;5251;52.112;8.606;2023-05-10T00:46:06;5.43;;;4.93;;
10410;SDS011;5251;52.112;8.606;2023-05-10T00:48:32;5.32;;;4.82;;
10410;SDS011;5251;52.112;8.606;2023-05-10T00:50:58;5.20;;;4.78;;
10410;SDS011;5251;52.112;8.606;2023-05-10T00:53:25;5.18;;;4.72;;
10410;SDS011;5251;52.112;8.606;2023-05-10T00:55:52;5.47;;;4.75;;
10410;SDS011;5251;52.112;8.606;2023-05-10T00:58:17;5.43;;;4.97;;
10410;SDS011;5251;52.112;8.606;2023-05-10T01:00:43;5.93;;;5.32;;
10410;SDS011;5251;52.112;8.606;2023-05-10T01:03:12;4.88;;;4.47;;
10410;SDS011;5251;52.112;8.606;2023-05-10T01:05:39;5.32;;;4.82;;
10410;SDS011;5251;52.112;8.606;2023-05-10T01:08:06;5.10;;;4.70;;
10410;SDS011;5251;52.112;8.606;2023-05-10T01:10:33;5.20;;;4.80;;
10410;SDS011;5251;52.112;8.606;2023-05-10T01:12:59;5.53;;;5.03;;
10410;SDS011;5251;52.112;8.606;2023-05-10T01:15:25;5.55;;;5.05;;
10410;SDS011;5251;52.112;8.606;2023-05-10T01:17:51;5.68;;;5.18;;
10410;SDS011;5251;52.112;8.606;2023-05-10T01:20:18;5.60;;;5.10;;
10410;SDS011;5251;52.112;8.606;2023-05-10T01:36:43;5.00;;;4.60;;
10410;SDS011;5251;52.112;8.606;2023-05-10T01:41:54;5.68;;;5.18;;
10410;SDS011;5251;52.112;8.606;2023-05-10T01:44:54;6.35;;;5.75;;
10410;SDS011;5251;52.112;8.606;2023-05-10T01:47:50;6.38;;;5.72;;
10410;SDS011;5251;52.112;8.606;2023-05-10T01:50:22;6.47;;;5.88;;
10410;SDS011;5251;52.112;8.606;2023-05-10T01:52:53;5.90;;;5.32;;
10410;SDS011;5251;52.112;8.606;2023-05-10T01:55:22;6.60;;;5.97;;
10410;SDS011;5251;52.112;8.606;2023-05-10T01:57:52;6.10;;;5.50;;
10410;SDS011;5251;52.112;8.606;2023-05-10T02:00:33;6.40;;;5.70;;
10410;SDS011;5251;52.112;8.606;2023-05-10T02:03:00;6.75;;;5.85;;
10410;SDS011;5251;52.112;8.606;2023-05-10T02:05:28;6.13;;;5.53;;
10410;SDS011;5251;52.112;8.606;2023-05-10T02:07:57;5.88;;;5.28;;
10410;SDS011;5251;52.112;8.606;2023-05-10T02:10:23;6.07;;;5.57;;
10410;SDS011;5251;52.112;8.606;2023-05-10T02:12:49;5.32;;;4.80;;
10410;SDS011;5251;52.112;8.606;2023-05-10T02:15:18;4.93;;;4.50;;
10410;SDS011;5251;52.112;8.606;2023-05-10T02:17:46;4.50;;;4.10;;
10410;SDS011;5251;52.112;8.606;2023-05-10T02:20:12;3.75;;;3.45;;
10410;SDS011;5251;52.112;8.606;2023-05-10T02:22:38;4.00;;;3.60;;
10410;SDS011;5251;52.112;8.606;2023-05-10T02:25:06;3.78;;;3.38;;
10410;SDS011;5251;52.112;8.606;2023-05-10T02:27:34;3.40;;;3.10;;
10410;SDS011;5251;52.112;8.606;2023-05-10T02:30:01;3.67;;;3.00;;
10410;SDS011;5251;52.112;8.606;2023-05-10T02:32:27;3.22;;;2.92;;
10410;SDS011;5251;52.112;8.606;2023-05-10T02:34:54;2.90;;;2.70;;
10410;SDS011;5251;52.112;8.606;2023-05-10T02:37:21;3.20;;;2.90;;
10410;SDS011;5251;52.112;8.606;2023-05-10T02:39:47;3.47;;;3.17;;
10410;SDS011;5251;52.112;8.606;2023-05-10T02:42:18;3.03;;;2.83;;
10410;SDS011;5251;52.112;8.606;2023-05-10T02:44:47;2.53;;;2.33;;
10410;SDS011;5251;52.112;8.606;2023-05-10T02:47:15;3.20;;;2.80;;
10410;SDS011;5251;52.112;8.606;2023-05-10T02:49:41;3.05;;;2.72;;
10410;SDS011;5251;52.112;8.606;2023-05-10T02:52:07;3.35;;;2.67;;
10410;SDS011;5251;52.112;8.606;2023-05-10T02:54:35;3.35;;;2.75;;
10410;SDS011;5251;52.112;8.606;2023-05-10T02:57:08;2.50;;;2.30;;
10410;SDS011;5251;52.112;8.606;2023-05-10T02:59:39;2.35;;;2.15;;
10410;SDS011;5251;52.112;8.606;2023-05-10T03:02:07;3.47;;;2.25;;
10410;SDS011;5251;52.112;8.606;2023-05-10T03:04:34;2.47;;;2.28;;
10410;SDS011;5251;52.112;8.606;2023-05-10T03:06:59;2.50;;;2.30;;
10410;SDS011;5251;52.112;8.606;2023-05-10T03:09:25;3.20;;;2.80;;
10410;SDS011;5251;52.112;8.606;2023-05-10T03:12:33;2.70;;;2.50;;
10410;SDS011;5251;52.112;8.606;2023-05-10T03:18:09;2.97;;;2.78;;
10410;SDS011;5251;52.112;8.606;2023-05-10T03:20:50;2.78;;;2.58;;
10410;SDS011;5251;52.112;8.606;2023-05-10T03:25:46;2.83;;;2.63;;
10410;SDS011;5251;52.112;8.606;2023-05-10T03:28:14;2.92;;;2.70;;
10410;SDS011;5251;52.112;8.606;2023-05-10T03:30:41;3.35;;;3.05;;
10410;SDS011;5251;52.112;8.606;2023-05-10T03:33:08;3.35;;;3.05;;
10410;SDS011;5251;52.112;8.606;2023-05-10T03:35:34;3.45;;;3.15;;
10410;SDS011;5251;52.112;8.606;2023-05-10T03:38:00;3.33;;;3.03;;
10410;SDS011;5251;52.112;8.606;2023-05-10T03:40:25;3.22;;;2.75;;
10410;SDS011;5251;52.112;8.606;2023-05-10T03:42:53;3.45;;;3.15;;
10410;SDS011;5251;52.112;8.606;2023-05-10T03:45:20;3.13;;;2.90;;
10410;SDS011;5251;52.112;8.606;2023-05-10T03:47:45;3.55;;;3.20;;
10410;SDS011;5251;52.112;8.606;2023-05-10T03:50:11;3.40;;;3.10;;
10410;SDS011;5251;52.112;8.606;2023-05-10T03:52:36;2.72;;;2.53;;
10410;SDS011;5251;52.112;8.606;2023-05-10T03:55:04;3.17;;;2.90;;
10410;SDS011;5251;52.112;8.606;2023-05-10T03:57:30;2.80;;;2.60;;
10410;SDS011;5251;52.112;8.606;2023-05-10T03:59:56;3.00;;;2.80;;
10410;SDS011;5251;52.112;8.606;2023-05-10T04:02:21;2.63;;;2.42;;
10410;SDS011;5251;52.112;8.606;2023-05-10T04:04:47;3.40;;;3.10;;
10410;SDS011;5251;52.112;8.606;2023-05-10T04:07:13;3.10;;;2.80;;
10410;SDS011;5251;52.112;8.606;2023-05-10T04:09:39;2.85;;;2.65;;
10410;SDS011;5251;52.112;8.606;2023-05-10T04:12:04;3.03;;;2.83;;
10410;SDS011;5251;52.112;8.606;2023-05-10T04:14:30;2.67;;;2.47;;
10410;SDS011;5251;52.112;8.606;2023-05-10T04:16:56;3.15;;;2.70;;
10410;SDS011;5251;52.112;8.606;2023-05-10T04:19:21;2.45;;;2.25;;
10410;SDS011;5251;52.112;8.606;2023-05-10T04:21:47;3.13;;;2.83;;
10410;SDS011;5251;52.112;8.606;2023-05-10T04:24:13;2.83;;;2.10;;
10410;SDS011;5251;52.112;8.606;2023-05-10T04:26:38;2.30;;;2.10;;
10410;SDS011;5251;52.112;8.606;2023-05-10T04:29:04;2.20;;;2.00;;
10410;SDS011;5251;52.112;8.606;2023-05-10T04:31:30;1.40;;;1.30;;
10410;SDS011;5251;52.112;8.606;2023-05-10T04:33:55;1.00;;;1.00;;
10410;SDS011;5251;52.112;8.606;2023-05-10T04:36:21;0.98;;;0.98;;
10410;SDS011;5251;52.112;8.606;2023-05-10T04:38:46;1.77;;;1.00;;
10410;SDS011;5251;52.112;8.606;2023-05-10T04:41:12;0.57;;;0.57;;
10410;SDS011;5251;52.112;8.606;2023-05-10T04:43:38;0.85;;;0.85;;
10410;SDS011;5251;52.112;8.606;2023-05-10T04:46:03;0.90;;;0.90;;
10410;SDS011;5251;52.112;8.606;2023-05-10T04:48:29;1.50;;;0.80;;
10410;SDS011;5251;52.112;8.606;2023-05-10T04:50:55;1.20;;;1.10;;
10410;SDS011;5251;52.112;8.606;2023-05-10T04:53:21;1.75;;;1.20;;
10410;SDS011;5251;52.112;8.606;2023-05-10T04:55:47;1.58;;;1.10;;
10410;SDS011;5251;52.112;8.606;2023-05-10T04:58:13;1.10;;;1.10;;
10410;SDS011;5251;52.112;8.606;2023-05-10T05:00:38;1.38;;;1.27;;
10410;SDS011;5251;52.112;8.606;2023-05-10T05:03:04;1.40;;;1.30;;
10410;SDS011;5251;52.112;8.606;2023-05-10T05:05:30;1.40;;;1.30;;
10410;SDS011;5251;52.112;8.606;2023-05-10T05:07:55;2.25;;;1.27;;
10410;SDS011;5251;52.112;8.606;2023-05-10T05:10:21;1.88;;;1.45;;
10410;SDS011;5251;52.112;8.606;2023-05-10T05:12:47;1.50;;;1.40;;
10410;SDS011;5251;52.112;8.606;2023-05-10T05:15:12;2.25;;;1.52;;
10410;SDS011;5251;52.112;8.606;2023-05-10T05:17:38;1.52;;;1.30;;
10410;SDS011;5251;52.112;8.606;2023-05-10T05:20:04;1.85;;;1.40;;
10410;SDS011;5251;52.112;8.606;2023-05-10T05:22:30;1.50;;;1.40;;
10410;SDS011;5251;52.112;8.606;2023-05-10T05:24:56;1.75;;;1.45;;
10410;SDS011;5251;52.112;8.606;2023-05-10T05:27:23;1.60;;;1.50;;
10410;SDS011;5251;52.112;8.606;2023-05-10T05:29:52;1.45;;;1.35;;
10410;SDS011;5251;52.112;8.606;2023-05-10T05:32:18;1.55;;;1.40;;
10410;SDS011;5251;52.112;8.606;2023-05-10T05:34:44;2.03;;;1.30;;
10410;SDS011;5251;52.112;8.606;2023-05-10T05:37:14;1.70;;;1.40;;
10410;SDS011;5251;52.112;8.606;2023-05-10T05:39:40;1.70;;;1.58;;
10410;SDS011;5251;52.112;8.606;2023-05-10T05:42:07;1.60;;;1.50;;
10410;SDS011;5251;52.112;8.606;2023-05-10T05:44:33;1.52;;;1.42;;
10410;SDS011;5251;52.112;8.606;2023-05-10T05:46:59;2.47;;;1.50;;
10410;SDS011;5251;52.112;8.606;2023-05-10T05:49:24;1.50;;;1.40;;
10410;SDS011;5251;52.112;8.606;2023-05-10T05:51:50;1.85;;;1.25;;
10410;SDS011;5251;52.112;8.606;2023-05-10T05:54:16;1.40;;;1.30;;
10410;SDS011;5251;52.112;8.606;2023-05-10T05:56:41;1.70;;;1.60;;
10410;SDS011;5251;52.112;8.606;2023-05-10T05:59:07;1.50;;;1.40;;
10410;SDS011;5251;52.112;8.606;2023-05-10T06:01:33;2.15;;;1.42;;
10410;SDS011;5251;52.112;8.606;2023-05-10T06:03:58;1.52;;;1.42;;
10410;SDS011;5251;52.112;8.606;2023-05-10T06:06:24;1.50;;;1.40;;
10410;SDS011;5251;52.112;8.606;2023-05-10T06:08:49;1.90;;;1.35;;
10410;SDS011;5251;52.112;8.606;2023-05-10T06:11:15;0.93;;;0.93;;
10410;SDS011;5251;52.112;8.606;2023-05-10T06:13:40;1.30;;;1.20;;
10410;SDS011;5251;52.112;8.606;2023-05-10T06:16:07;1.20;;;1.20;;
10410;SDS011;5251;52.112;8.606;2023-05-10T06:18:33;1.65;;;1.35;;
10410;SDS011;5251;52.112;8.606;2023-05-10T06:20:59;1.30;;;1.17;;
10410;SDS011;5251;52.112;8.606;2023-05-10T06:23:25;1.40;;;1.30;;
10410;SDS011;5251;52.112;8.606;2023-05-10T06:25:51;1.02;;;1.00;;
10410;SDS011;5251;52.112;8.606;2023-05-10T06:28:17;0.95;;;0.95;;
10410;SDS011;5251;52.112;8.606;2023-05-10T06:30:42;1.08;;;1.00;;
10410;SDS011;5251;52.112;8.606;2023-05-10T06:33:09;1.25;;;1.15;;
10410;SDS011;5251;52.112;8.606;2023-05-10T06:35:35;1.05;;;1.00;;
10410;SDS011;5251;52.112;8.606;2023-05-10T06:38:01;1.38;;;1.20;;
10410;SDS011;5251;52.112;8.606;2023-05-10T06:40:27;1.25;;;1.15;;
10410;SDS011;5251;52.112;8.606;2023-05-10T06:42:52;1.40;;;1.30;;
10410;SDS011;5251;52.112;8.606;2023-05-10T06:45:18;1.70;;;1.60;;
10410;SDS011;5251;52.112;8.606;2023-05-10T06:47:44;1.52;;;1.42;;
10410;SDS011;5251;52.112;8.606;2023-05-10T06:50:10;2.17;;;1.98;;
10410;SDS011;5251;52.112;8.606;2023-05-10T06:52:39;3.22;;;1.92;;
10410;SDS011;5251;52.112;8.606;2023-05-10T06:55:05;1.90;;;1.70;;
10410;SDS011;5251;52.112;8.606;2023-05-10T06:57:31;1.90;;;1.80;;
10410;SDS011;5251;52.112;8.606;2023-05-10T06:59:57;2.25;;;1.50;;
10410;SDS011;5251;52.112;8.606;2023-05-10T07:02:23;1.77;;;1.67;;
10410;SDS011;5251;52.112;8.606;2023-05-10T07:04:49;1.80;;;1.70;;
10410;SDS011;5251;52.112;8.606;2023-05-10T07:07:16;1.70;;;1.60;;
10410;SDS011;5251;52.112;8.606;2023-05-10T07:09:42;1.83;;;1.50;;
10410;SDS011;5251;52.112;8.606;2023-05-10T07:12:07;1.80;;;1.70;;
10410;SDS011;5251;52.112;8.606;2023-05-10T07:14:33;1.65;;;1.55;;
10410;SDS011;5251;52.112;8.606;2023-05-10T07:16:58;1.80;;;1.70;;
10410;SDS011;5251;52.112;8.606;2023-05-10T07:19:24;1.83;;;1.67;;
10410;SDS011;5251;52.112;8.606;2023-05-10T07:21:50;2.00;;;1.80;;
10410;SDS011;5251;52.112;8.606;2023-05-10T07:24:15;1.90;;;1.60;;
10410;SDS011;5251;52.112;8.606;2023-05-10T07:26:41;1.92;;;1.77;;
10410;SDS011;5251;52.112;8.606;2023-05-10T07:29:07;2.08;;;1.77;;
10410;SDS011;5251;52.112;8.606;2023-05-10T07:31:33;1.90;;;1.80;;
10410;SDS011;5251;52.112;8.606;2023-05-10T07:33:59;2.13;;;1.85;;
10410;SDS011;5251;52.112;8.606;2023-05-10T07:36:24;1.70;;;1.60;;
10410;SDS011;5251;52.112;8.606;2023-05-10T07:38:50;3.28;;;1.80;;
10410;SDS011;5251;52.112;8.606;2023-05-10T07:41:16;2.20;;;2.00;;
10410;SDS011;5251;52.112;8.606;2023-05-10T07:43:41;3.10;;;2.13;;
10410;SDS011;5251;52.112;8.606;2023-05-10T07:46:07;2.45;;;2.25;;
10410;SDS011;5251;52.112;8.606;2023-05-10T07:48:36;3.00;;;2.22;;
10410;SDS011;5251;52.112;8.606;2023-05-10T07:51:02;3.00;;;2.38;;
10410;SDS011;5251;52.112;8.606;2023-05-10T07:53:27;2.80;;;2.53;;
10410;SDS011;5251;52.112;8.606;2023-05-10T07:55:54;4.10;;;2.92;;
10410;SDS011;5251;52.112;8.606;2023-05-10T07:58:23;3.72;;;3.28;;
10410;SDS011;5251;52.112;8.606;2023-05-10T08:00:49;3.95;;;3.05;;
10410;SDS011;5251;52.112;8.606;2023-05-10T08:03:15;3.60;;;3.03;;
10410;SDS011;5251;52.112;8.606;2023-05-10T08:05:41;3.78;;;2.85;;
10410;SDS011;5251;52.112;8.606;2023-05-10T08:08:07;3.80;;;3.03;;
10410;SDS011;5251;52.112;8.606;2023-05-10T08:10:32;3.58;;;3.28;;
10410;SDS011;5251;52.112;8.606;2023-05-10T08:12:58;4.35;;;3.10;;
10410;SDS011;5251;52.112;8.606;2023-05-10T08:15:24;4.47;;;3.47;;
10410;SDS011;5251;52.112;8.606;2023-05-10T08:17:50;3.95;;;3.50;;
10410;SDS011;5251;52.112;8.606;2023-05-10T08:20:16;4.13;;;3.47;;
10410;SDS011;5251;52.112;8.606;2023-05-10T08:22:44;3.97;;;3.58;;
10410;SDS011;5251;52.112;8.606;2023-05-10T08:25:10;4.75;;;3.88;;
10410;SDS011;5251;52.112;8.606;2023-05-10T08:27:36;5.63;;;4.00;;
10410;SDS011;5251;52.112;8.606;2023-05-10T08:30:01;3.63;;;3.25;;
10410;SDS011;5251;52.112;8.606;2023-05-10T08:32:27;4.47;;;3.53;;
10410;SDS011;5251;52.112;8.606;2023-05-10T08:34:52;4.43;;;3.78;;
10410;SDS011;5251;52.112;8.606;2023-05-10T08:37:18;4.72;;;4.32;;
10410;SDS011;5251;52.112;8.606;2023-05-10T08:39:44;4.72;;;4.18;;
10410;SDS011;5251;52.112;8.606;2023-05-10T08:42:12;4.75;;;4.13;;
10410;SDS011;5251;52.112;8.606;2023-05-10T08:44:43;5.75;;;5.03;;
10410;SDS011;5251;52.112;8.606;2023-05-10T08:47:11;5.80;;;5.00;;
10410;SDS011;5251;52.112;8.606;2023-05-10T08:49:40;5.85;;;5.22;;
10410;SDS011;5251;52.112;8.606;2023-05-10T08:52:06;7.32;;;5.78;;
10410;SDS011;5251;52.112;8.606;2023-05-10T08:54:33;6.85;;;6.15;;
10410;SDS011;5251;52.112;8.606;2023-05-10T08:56:59;6.13;;;5.15;;
10410;SDS011;5251;52.112;8.606;2023-05-10T08:59:24;7.43;;;6.50;;
10410;SDS011;5251;52.112;8.606;2023-05-10T09:01:50;7.63;;;6.35;;
10410;SDS011;5251;52.112;8.606;2023-05-10T09:04:18;7.00;;;6.30;;
10410;SDS011;5251;52.112;8.606;2023-05-10T09:06:44;7.47;;;6.38;;
10410;SDS011;5251;52.112;8.606;2023-05-10T09:09:10;6.88;;;6.18;;
10410;SDS011;5251;52.112;8.606;2023-05-10T09:11:37;9.13;;;6.68;;
10410;SDS011;5251;52.112;8.606;2023-05-10T09:14:02;7.72;;;6.75;;
10410;SDS011;5251;52.112;8.606;2023-05-10T09:16:28;7.13;;;6.43;;
10410;SDS011;5251;52.112;8.606;2023-05-10T09:18:53;8.20;;;6.90;;
10410;SDS011;5251;52.112;8.606;2023-05-10T09:21:19;7.38;;;6.45;;
10410;SDS011;5251;52.112;8.606;2023-05-10T09:23:45;7.13;;;6.32;;
10410;SDS011;5251;52.112;8.606;2023-05-10T09:26:11;7.22;;;6.45;;
10410;SDS011;5251;52.112;8.606;2023-05-10T09:28:57;8.10;;;6.53;;
10410;SDS011;5251;52.112;8.606;2023-05-10T09:31:24;6.95;;;6.15;;
10410;SDS011;5251;52.112;8.606;2023-05-10T09:34:07;7.03;;;6.13;;
10410;SDS011;5251;52.112;8.606;2023-05-10T09:36:33;5.88;;;5.28;;
10410;SDS011;5251;52.112;8.606;2023-05-10T09:38:58;6.88;;;5.32;;
10410;SDS011;5251;52.112;8.606;2023-05-10T09:41:25;6.07;;;5.40;;
10410;SDS011;5251;52.112;8.606;2023-05-10T09:43:55;8.07;;;5.68;;
10410;SDS011;5251;52.112;8.606;2023-05-10T09:46:21;5.63;;;5.03;;
10410;SDS011;5251;52.112;8.606;2023-05-10T09:48:50;5.65;;;5.05;;
10410;SDS011;5251;52.112;8.606;2023-05-10T09:51:22;6.70;;;5.50;;
10410;SDS011;5251;52.112;8.606;2023-05-10T09:53:50;6.68;;;5.93;;
10410;SDS011;5251;52.112;8.606;2023-05-10T09:56:38;8.00;;;6.43;;
10410;SDS011;5251;52.112;8.606;2023-05-10T09:59:05;8.88;;;6.80;;
10410;SDS011;5251;52.112;8.606;2023-05-10T10:01:31;6.75;;;5.82;;
10410;SDS011;5251;52.112;8.606;2023-05-10T10:03:58;8.32;;;6.63;;
10410;SDS011;5251;52.112;8.606;2023-05-10T10:06:24;8.27;;;6.43;;
10410;SDS011;5251;52.112;8.606;2023-05-10T10:08:50;6.88;;;6.13;;
10410;SDS011;5251;52.112;8.606;2023-05-10T10:11:16;6.95;;;6.25;;
10410;SDS011;5251;52.112;8.606;2023-05-10T10:13:42;6.65;;;5.68;;
10410;SDS011;5251;52.112;8.606;2023-05-10T10:16:08;7.30;;;6.38;;
10410;SDS011;5251;52.112;8.606;2023-05-10T10:18:35;6.65;;;5.65;;
10410;SDS011;5251;52.112;8.606;2023-05-10T10:21:04;6.90;;;5.60;;
10410;SDS011;5251;52.112;8.606;2023-05-10T10:23:31;7.03;;;5.85;;
10410;SDS011;5251;52.112;8.606;2023-05-10T10:25:57;7.65;;;5.30;;
10410;SDS011;5251;52.112;8.606;2023-05-10T10:28:26;6.22;;;5.05;;
10410;SDS011;5251;52.112;8.606;2023-05-10T10:31:00;4.97;;;4.47;;
10410;SDS011;5251;52.112;8.606;2023-05-10T10:33:59;7.50;;;5.32;;
10410;SDS011;5251;52.112;8.606;2023-05-10T10:36:28;6.65;;;5.65;;
10410;SDS011;5251;52.112;8.606;2023-05-10T10:38:58;5.80;;;5.20;;
10410;SDS011;5251;52.112;8.606;2023-05-10T10:41:32;5.40;;;4.78;;
10410;SDS011;5251;52.112;8.606;2023-05-10T10:49:34;6.00;;;5.40;;
10410;SDS011;5251;52.112;8.606;2023-05-10T10:52:21;7.38;;;5.38;;
10410;SDS011;5251;52.112;8.606;2023-05-10T10:54:51;5.43;;;4.90;;
10410;SDS011;5251;52.112;8.606;2023-05-10T10:57:25;4.60;;;4.20;;
10410;SDS011;5251;52.112;8.606;2023-05-10T11:02:43;5.10;;;4.35;;
10410;SDS011;5251;52.112;8.606;2023-05-10T11:05:25;5.45;;;4.40;;
10410;SDS011;5251;52.112;8.606;2023-05-10T11:07:51;4.70;;;4.10;;
10410;SDS011;5251;52.112;8.606;2023-05-10T11:10:19;4.20;;;3.70;;
10410;SDS011;5251;52.112;8.606;2023-05-10T11:13:01;4.20;;;3.80;;
10410;SDS011;5251;52.112;8.606;2023-05-10T11:15:48;3.92;;;3.50;;
10410;SDS011;5251;52.112;8.606;2023-05-10T11:20:44;4.30;;;3.60;;
10410;SDS011;5251;52.112;8.606;2023-05-10T11:23:16;3.85;;;3.45;;
10410;SDS011;5251;52.112;8.606;2023-05-10T11:25:43;4.45;;;3.58;;
10410;SDS011;5251;52.112;8.606;2023-05-10T11:28:09;3.42;;;2.78;;
10410;SDS011;5251;52.112;8.606;2023-05-10T11:30:36;3.40;;;3.10;;
10410;SDS011;5251;52.112;8.606;2023-05-10T11:33:03;4.07;;;3.17;;
10410;SDS011;5251;52.112;8.606;2023-05-10T11:35:28;3.72;;;3.28;;
10410;SDS011;5251;52.112;8.606;2023-05-10T11:37:54;2.97;;;2.65;;
10410;SDS011;5251;52.112;8.606;2023-05-10T11:40:22;3.80;;;2.92;;
10410;SDS011;5251;52.112;8.606;2023-05-10T11:42:51;5.22;;;3.20;;
10410;SDS011;5251;52.112;8.606;2023-05-10T11:45:17;3.58;;;2.90;;
10410;SDS011;5251;52.112;8.606;2023-05-10T11:47:42;3.50;;;3.20;;
10410;SDS011;5251;52.112;8.606;2023-05-10T11:50:08;4.22;;;3.00;;
10410;SDS011;5251;52.112;8.606;2023-05-10T11:52:36;3.95;;;3.50;;
10410;SDS011;5251;52.112;8.606;2023-05-10T11:55:05;4.13;;;3.38;;
10410;SDS011;5251;52.112;8.606;2023-05-10T11:57:30;3.83;;;3.47;;
10410;SDS011;5251;52.112;8.606;2023-05-10T11:59:56;3.30;;;3.00;;
10410;SDS011;5251;52.112;8.606;2023-05-10T12:02:23;3.75;;;2.85;;
10410;SDS011;5251;52.112;8.606;2023-05-10T12:04:49;3.55;;;2.75;;
10410;SDS011;5251;52.112;8.606;2023-05-10T12:07:16;6.15;;;3.17;;
10410;SDS011;5251;52.112;8.606;2023-05-10T12:09:43;4.95;;;3.13;;
10410;SDS011;5251;52.112;8.606;2023-05-10T12:12:09;3.95;;;3.25;;
10410;SDS011;5251;52.112;8.606;2023-05-10T12:14:36;7.00;;;3.78;;
10410;SDS011;5251;52.112;8.606;2023-05-10T12:17:01;5.43;;;3.92;;
10410;SDS011;5251;52.112;8.606;2023-05-10T12:19:27;4.18;;;3.47;;
10410;SDS011;5251;52.112;8.606;2023-05-10T12:21:53;4.57;;;3.78;;
10410;SDS011;5251;52.112;8.606;2023-05-10T12:24:18;4.38;;;3.47;;
10410;SDS011;5251;52.112;8.606;2023-05-10T12:26:46;8.73;;;4.15;;
10410;SDS011;5251;52.112;8.606;2023-05-10T12:29:14;4.47;;;3.65;;
10410;SDS011;5251;52.112;8.606;2023-05-10T12:31:56;4.88;;;3.40;;
10410;SDS011;5251;52.112;8.606;2023-05-10T12:34:29;3.92;;;3.35;;
10410;SDS011;5251;52.112;8.606;2023-05-10T12:36:56;3.30;;;2.97;;
10410;SDS011;5251;52.112;8.606;2023-05-10T12:39:23;3.67;;;3.00;;
10410;SDS011;5251;52.112;8.606;2023-05-10T12:41:50;3.55;;;2.60;;
10410;SDS011;5251;52.112;8.606;2023-05-10T12:44:16;3.35;;;2.85;;
10410;SDS011;5251;52.112;8.606;2023-05-10T12:46:42;3.15;;;2.72;;
10410;SDS011;5251;52.112;8.606;2023-05-10T12:49:07;4.63;;;2.97;;
10410;SDS011;5251;52.112;8.606;2023-05-10T12:51:33;6.45;;;3.45;;
10410;SDS011;5251;52.112;8.606;2023-05-10T12:53:58;2.90;;;2.60;;
10410;SDS011;5251;52.112;8.606;2023-05-10T12:56:24;4.22;;;3.60;;
10410;SDS011;5251;52.112;8.606;2023-05-10T12:58:50;4.60;;;3.80;;
10410;SDS011;5251;52.112;8.606;2023-05-10T13:01:15;5.85;;;4.60;;
10410;SDS011;5251;52.112;8.606;2023-05-10T13:03:41;5.65;;;4.00;;
10410;SDS011;5251;52.112;8.606;2023-05-10T13:06:08;5.85;;;3.72;;
10410;SDS011;5251;52.112;8.606;2023-05-10T13:08:33;5.07;;;3.92;;
10410;SDS011;5251;52.112;8.606;2023-05-10T13:10:59;4.32;;;3.60;;
10410;SDS011;5251;52.112;8.606;2023-05-10T13:13:26;4.40;;;3.95;;
10410;SDS011;5251;52.112;8.606;2023-05-10T13:15:51;7.88;;;4.53;;
10410;SDS011;5251;52.112;8.606;2023-05-10T13:18:17;5.53;;;4.10;;
10410;SDS011;5251;52.112;8.606;2023-05-10T13:20:42;5.60;;;4.15;;
10410;SDS011;5251;52.112;8.606;2023-05-10T13:23:09;6.40;;;4.10;;
10410;SDS011;5251;52.112;8.606;2023-05-10T13:25:35;4.20;;;3.80;;
10410;SDS011;5251;52.112;8.606;2023-05-10T13:28:01;4.60;;;3.83;;
10410;SDS011;5251;52.112;8.606;2023-05-10T13:30:27;6.63;;;4.03;;
10410;SDS011;5251;52.112;8.606;2023-05-10T13:32:53;6.25;;;4.35;;
10410;SDS011;5251;52.112;8.606;2023-05-10T13:35:19;5.68;;;4.22;;
10410;SDS011;5251;52.112;8.606;2023-05-10T13:37:45;5.35;;;4.50;;
10410;SDS011;5251;52.112;8.606;2023-05-10T13:40:10;5.13;;;4.10;;
10410;SDS011;5251;52.112;8.606;2023-05-10T13:42:36;4.50;;;3.95;;
10410;SDS011;5251;52.112;8.606;2023-05-10T13:45:02;4.70;;;3.88;;
10410;SDS011;5251;52.112;8.606;2023-05-10T13:47:28;4.07;;;3.67;;
10410;SDS011;5251;52.112;8.606;2023-05-10T13:49:54;4.38;;;3.58;;
10410;SDS011;5251;52.112;8.606;2023-05-10T13:52:19;4.57;;;4.05;;
10410;SDS011;5251;52.112;8.606;2023-05-10T13:54:45;7.00;;;6.28;;
10410;SDS011;5251;52.112;8.606;2023-05-10T13:57:11;6.53;;;5.82;;
10410;SDS011;5251;52.112;8.606;2023-05-10T13:59:38;9.38;;;4.70;;
10410;SDS011;5251;52.112;8.606;2023-05-10T14:02:04;10.70;;;5.18;;
10410;SDS011;5251;52.112;8.606;2023-05-10T14:04:30;9.50;;;5.93;;
10410;SDS011;5251;52.112;8.606;2023-05-10T14:06:56;7.40;;;5.78;;
10410;SDS011;5251;52.112;8.606;2023-05-10T14:09:22;8.15;;;5.88;;
10410;SDS011;5251;52.112;8.606;2023-05-10T14:11:47;9.40;;;6.30;;
10410;SDS011;5251;52.112;8.606;2023-05-10T14:14:13;8.40;;;6.25;;
10410;SDS011;5251;52.112;8.606;2023-05-10T14:16:42;10.43;;;7.13;;
10410;SDS011;5251;52.112;8.606;2023-05-10T14:19:09;9.30;;;6.60;;
10410;SDS011;5251;52.112;8.606;2023-05-10T14:21:35;11.25;;;7.68;;
10410;SDS011;5251;52.112;8.606;2023-05-10T14:24:00;9.07;;;7.65;;
10410;SDS011;5251;52.112;8.606;2023-05-10T14:26:26;10.15;;;6.97;;
10410;SDS011;5251;52.112;8.606;2023-05-10T14:28:52;10.18;;;7.60;;
10410;SDS011;5251;52.112;8.606;2023-05-10T14:31:18;9.13;;;7.60;;
10410;SDS011;5251;52.112;8.606;2023-05-10T14:33:45;9.82;;;7.50;;
10410;SDS011;5251;52.112;8.606;2023-05-10T14:36:11;9.45;;;7.63;;
10410;SDS011;5251;52.112;8.606;2023-05-10T14:38:37;9.70;;;7.53;;
10410;SDS011;5251;52.112;8.606;2023-05-10T14:41:03;10.27;;;7.35;;
10410;SDS011;5251;52.112;8.606;2023-05-10T14:43:28;9.27;;;6.22;;
10410;SDS011;5251;52.112;8.606;2023-05-10T14:45:55;7.88;;;6.07;;
10410;SDS011;5251;52.112;8.606;2023-05-10T14:48:20;10.25;;;6.38;;
10410;SDS011;5251;52.112;8.606;2023-05-10T14:50:46;9.05;;;7.00;;
10410;SDS011;5251;52.112;8.606;2023-05-10T14:53:12;9.55;;;7.07;;
10410;SDS011;5251;52.112;8.606;2023-05-10T14:55:37;9.80;;;7.38;;
10410;SDS011;5251;52.112;8.606;2023-05-10T14:58:04;11.73;;;8.27;;
10410;SDS011;5251;52.112;8.606;2023-05-10T15:00:30;9.80;;;7.53;;
10410;SDS011;5251;52.112;8.606;2023-05-10T15:02:56;11.20;;;7.93;;
10410;SDS011;5251;52.112;8.606;2023-05-10T15:05:22;9.52;;;7.75;;
10410;SDS011;5251;52.112;8.606;2023-05-10T15:07:48;9.15;;;7.65;;
10410;SDS011;5251;52.112;8.606;2023-05-10T15:10:14;9.45;;;7.68;;
10410;SDS011;5251;52.112;8.606;2023-05-10T15:12:39;11.52;;;7.85;;
10410;SDS011;5251;52.112;8.606;2023-05-10T15:15:06;10.80;;;7.90;;
10410;SDS011;5251;52.112;8.606;2023-05-10T15:17:32;10.13;;;7.65;;
10410;SDS011;5251;52.112;8.606;2023-05-10T15:19:58;10.23;;;7.43;;
10410;SDS011;5251;52.112;8.606;2023-05-10T15:22:23;8.93;;;7.68;;
10410;SDS011;5251;52.112;8.606;2023-05-10T15:24:49;10.75;;;8.40;;
10410;SDS011;5251;52.112;8.606;2023-05-10T15:27:15;8.80;;;7.57;;
10410;SDS011;5251;52.112;8.606;2023-05-10T15:29:40;9.07;;;7.60;;
10410;SDS011;5251;52.112;8.606;2023-05-10T15:32:06;11.57;;;8.25;;
10410;SDS011;5251;52.112;8.606;2023-05-10T15:34:32;9.15;;;7.50;;